sensor_id;sensor_type;location;lat;lon;timestamp;pressure;altitude;pressure_sealevel;temperature;humidity
70217;BME280;57608;0.000;0.000;2022-10-22T00:00:14;99554.84;;;21.16;33.12
70217;BME280;57608;0.000;0.000;2022-10-22T00:02:40;99545.75;;;21.19;33.04
70217;BME280;57608;0.000;0.000;2022-10-22T00:05:06;99557.94;;;21.21;33.07
70217;BME280;57608;0.000;0.000;2022-10-22T00:07:31;99555.13;;;21.23;33.11
70217;BME280;57608;0.000;0.000;2022-10-22T00:09:57;99548.13;;;21.22;33.06
70217;BME280;57608;0.000;0.000;2022-10-22T00:12:25;99551.06;;;21.19;33.02
70217;BME280;57608;0.000;0.000;2022-10-22T00:14:50;99549.63;;;21.15;32.88
70217;BME280;57608;0.000;0.000;2022-10-22T00:17:16;99548.22;;;21.10;32.97
70217;BME280;57608;0.000;0.000;2022-10-22T00:19:41;99549.34;;;21.08;33.21
70217;BME280;57608;0.000;0.000;2022-10-22T00:22:10;99541.50;;;21.06;33.33
70217;BME280;57608;0.000;0.000;2022-10-22T00:24:38;99538.59;;;21.09;33.34
70217;BME280;57608;0.000;0.000;2022-10-22T00:27:05;99539.13;;;21.13;33.26
70217;BME280;57608;0.000;0.000;2022-10-22T00:29:31;99536.88;;;21.18;33.27
70217;BME280;57608;0.000;0.000;2022-10-22T00:31:59;99539.97;;;21.23;33.29
70217;BME280;57608;0.000;0.000;2022-10-22T00:34:27;99536.75;;;21.29;33.26
70217;BME280;57608;0.000;0.000;2022-10-22T00:36:52;99532.69;;;21.35;33.11
70217;BME280;57608;0.000;0.000;2022-10-22T00:39:22;99540.28;;;21.40;33.07
70217;BME280;57608;0.000;0.000;2022-10-22T00:41:50;99534.50;;;21.44;32.70
70217;BME280;57608;0.000;0.000;2022-10-22T00:47:22;99532.84;;;21.53;32.75
70217;BME280;57608;0.000;0.000;2022-10-22T00:49:49;99536.09;;;21.57;32.72
70217;BME280;57608;0.000;0.000;2022-10-22T00:52:16;99536.81;;;21.59;32.69
70217;BME280;57608;0.000;0.000;2022-10-22T00:54:42;99538.34;;;21.61;32.60
70217;BME280;57608;0.000;0.000;2022-10-22T00:57:08;99539.19;;;21.62;32.46
70217;BME280;57608;0.000;0.000;2022-10-22T00:59:34;99531.91;;;21.64;32.49
70217;BME280;57608;0.000;0.000;2022-10-22T01:02:00;99530.34;;;21.61;32.51
70217;BME280;57608;0.000;0.000;2022-10-22T01:04:28;99535.13;;;21.58;32.47
70217;BME280;57608;0.000;0.000;2022-10-22T01:06:53;99532.00;;;21.53;32.57
70217;BME280;57608;0.000;0.000;2022-10-22T01:12:11;99530.44;;;21.40;32.53
70217;BME280;57608;0.000;0.000;2022-10-22T01:25:33;99533.66;;;21.15;33.13
70217;BME280;57608;0.000;0.000;2022-10-22T01:31:13;99533.66;;;21.15;33.16
70217;BME280;57608;0.000;0.000;2022-10-22T01:33:41;99532.53;;;21.17;33.04
70217;BME280;57608;0.000;0.000;2022-10-22T01:36:09;99542.06;;;21.20;33.02
70217;BME280;57608;0.000;0.000;2022-10-22T01:38:36;99534.94;;;21.20;33.02
70217;BME280;57608;0.000;0.000;2022-10-22T01:41:03;99535.91;;;21.19;32.99
70217;BME280;57608;0.000;0.000;2022-10-22T01:43:29;99546.84;;;21.16;32.98
70217;BME280;57608;0.000;0.000;2022-10-22T01:46:00;99541.78;;;21.13;32.96
70217;BME280;57608;0.000;0.000;2022-10-22T01:51:17;99541.50;;;21.06;33.01
70217;BME280;57608;0.000;0.000;2022-10-22T02:02:37;99541.09;;;21.21;33.24
70217;BME280;57608;0.000;0.000;2022-10-22T02:05:10;99548.53;;;21.27;33.17
70217;BME280;57608;0.000;0.000;2022-10-22T02:07:49;99548.00;;;21.33;33.14
70217;BME280;57608;0.000;0.000;2022-10-22T02:10:17;99545.75;;;21.38;32.99
70217;BME280;57608;0.000;0.000;2022-10-22T02:12:47;99553.31;;;21.43;32.91
70217;BME280;57608;0.000;0.000;2022-10-22T02:15:14;99556.41;;;21.48;32.87
70217;BME280;57608;0.000;0.000;2022-10-22T02:17:42;99550.81;;;21.51;32.79
70217;BME280;57608;0.000;0.000;2022-10-22T02:20:16;99555.00;;;21.54;32.66
70217;BME280;57608;0.000;0.000;2022-10-22T02:22:45;99561.78;;;21.58;32.83
70217;BME280;57608;0.000;0.000;2022-10-22T02:25:12;99555.47;;;21.59;32.71
70217;BME280;57608;0.000;0.000;2022-10-22T02:27:48;99564.00;;;21.62;32.53
70217;BME280;57608;0.000;0.000;2022-10-22T02:30:19;99559.53;;;21.63;32.62
70217;BME280;57608;0.000;0.000;2022-10-22T02:35:25;99557.41;;;21.57;32.56
70217;BME280;57608;0.000;0.000;2022-10-22T02:37:54;99554.31;;;21.52;32.61
70217;BME280;57608;0.000;0.000;2022-10-22T02:40:23;99552.19;;;21.45;32.64
70217;BME280;57608;0.000;0.000;2022-10-22T02:42:49;99559.75;;;21.40;32.67
70217;BME280;57608;0.000;0.000;2022-10-22T02:45:16;99555.84;;;21.35;32.65
70217;BME280;57608;0.000;0.000;2022-10-22T02:47:43;99556.53;;;21.27;32.78
70217;BME280;57608;0.000;0.000;2022-10-22T02:50:09;99565.78;;;21.23;32.70
70217;BME280;57608;0.000;0.000;2022-10-22T02:52:34;99554.97;;;21.15;32.80
70217;BME280;57608;0.000;0.000;2022-10-22T02:55:00;99558.63;;;21.13;32.99
70217;BME280;57608;0.000;0.000;2022-10-22T02:57:25;99562.28;;;21.12;32.91
70217;BME280;57608;0.000;0.000;2022-10-22T02:59:58;99565.06;;;21.11;33.09
70217;BME280;57608;0.000;0.000;2022-10-22T03:02:26;99558.06;;;21.10;32.99
70217;BME280;57608;0.000;0.000;2022-10-22T03:04:54;99568.28;;;21.15;32.97
70217;BME280;57608;0.000;0.000;2022-10-22T03:07:19;99562.84;;;21.16;33.02
70217;BME280;57608;0.000;0.000;2022-10-22T03:09:45;99569.84;;;21.17;32.95
70217;BME280;57608;0.000;0.000;2022-10-22T03:12:20;99569.00;;;21.17;32.91
70217;BME280;57608;0.000;0.000;2022-10-22T03:14:46;99566.63;;;21.13;32.86
70217;BME280;57608;0.000;0.000;2022-10-22T03:17:11;99567.88;;;21.09;32.83
70217;BME280;57608;0.000;0.000;2022-10-22T03:19:37;99562.00;;;21.06;33.04
70217;BME280;57608;0.000;0.000;2022-10-22T03:22:08;99566.75;;;21.02;33.04
70217;BME280;57608;0.000;0.000;2022-10-22T03:24:38;99567.56;;;21.03;33.23
70217;BME280;57608;0.000;0.000;2022-10-22T03:27:04;99563.09;;;21.03;33.15
70217;BME280;57608;0.000;0.000;2022-10-22T03:29:33;99562.56;;;21.09;33.19
70217;BME280;57608;0.000;0.000;2022-10-22T03:32:00;99561.31;;;21.13;33.06
70217;BME280;57608;0.000;0.000;2022-10-22T03:34:25;99565.38;;;21.18;33.12
70217;BME280;57608;0.000;0.000;2022-10-22T03:36:53;99556.69;;;21.25;33.00
70217;BME280;57608;0.000;0.000;2022-10-22T03:39:21;99556.41;;;21.28;32.88
70217;BME280;57608;0.000;0.000;2022-10-22T03:41:48;99569.03;;;21.36;32.76
70217;BME280;57608;0.000;0.000;2022-10-22T03:44:16;99565.09;;;21.40;32.66
70217;BME280;57608;0.000;0.000;2022-10-22T03:46:42;99560.34;;;21.44;32.65
70217;BME280;57608;0.000;0.000;2022-10-22T03:49:07;99562.59;;;21.49;32.78
70217;BME280;57608;0.000;0.000;2022-10-22T03:51:33;99565.94;;;21.51;32.59
70217;BME280;57608;0.000;0.000;2022-10-22T03:54:00;99562.03;;;21.55;32.56
70217;BME280;57608;0.000;0.000;2022-10-22T03:56:26;99565.41;;;21.57;32.39
70217;BME280;57608;0.000;0.000;2022-10-22T03:58:55;99566.13;;;21.59;32.44
70217;BME280;57608;0.000;0.000;2022-10-22T04:01:21;99563.47;;;21.59;32.47
70217;BME280;57608;0.000;0.000;2022-10-22T04:03:49;99565.41;;;21.57;32.28
70217;BME280;57608;0.000;0.000;2022-10-22T04:06:17;99566.66;;;21.53;32.59
70217;BME280;57608;0.000;0.000;2022-10-22T04:08:52;99570.59;;;21.49;32.56
70217;BME280;57608;0.000;0.000;2022-10-22T04:11:18;99565.81;;;21.42;32.46
70217;BME280;57608;0.000;0.000;2022-10-22T04:13:43;99565.38;;;21.37;32.56
70217;BME280;57608;0.000;0.000;2022-10-22T04:16:14;99565.09;;;21.31;32.47
70217;BME280;57608;0.000;0.000;2022-10-22T04:18:40;99563.81;;;21.25;32.59
70217;BME280;57608;0.000;0.000;2022-10-22T04:21:08;99562.56;;;21.19;32.60
70217;BME280;57608;0.000;0.000;2022-10-22T04:23:36;99562.97;;;21.15;32.87
70217;BME280;57608;0.000;0.000;2022-10-22T04:26:06;99568.56;;;21.11;32.89
70217;BME280;57608;0.000;0.000;2022-10-22T04:28:35;99561.56;;;21.10;32.88
70217;BME280;57608;0.000;0.000;2022-10-22T04:31:07;99571.25;;;21.11;32.99
70217;BME280;57608;0.000;0.000;2022-10-22T04:33:35;99568.44;;;21.13;33.08
70217;BME280;57608;0.000;0.000;2022-10-22T04:36:12;99570.94;;;21.15;32.97
70217;BME280;57608;0.000;0.000;2022-10-22T04:38:43;99569.00;;;21.17;33.07
70217;BME280;57608;0.000;0.000;2022-10-22T04:43:38;99572.63;;;21.16;32.85
70217;BME280;57608;0.000;0.000;2022-10-22T04:46:07;99563.25;;;21.11;32.77
70217;BME280;57608;0.000;0.000;2022-10-22T04:48:42;99574.03;;;21.10;32.83
70217;BME280;57608;0.000;0.000;2022-10-22T04:51:13;99566.44;;;21.05;33.00
70217;BME280;57608;0.000;0.000;2022-10-22T04:53:39;99573.75;;;21.03;33.13
70217;BME280;57608;0.000;0.000;2022-10-22T04:56:14;99575.44;;;21.04;32.97
70217;BME280;57608;0.000;0.000;2022-10-22T04:58:54;99569.97;;;21.06;33.12
70217;BME280;57608;0.000;0.000;2022-10-22T05:01:23;99577.44;;;21.12;33.19
70217;BME280;57608;0.000;0.000;2022-10-22T05:03:50;99578.69;;;21.18;33.21
70217;BME280;57608;0.000;0.000;2022-10-22T05:06:16;99580.81;;;21.24;33.19
70217;BME280;57608;0.000;0.000;2022-10-22T05:08:42;99582.06;;;21.29;33.10
70217;BME280;57608;0.000;0.000;2022-10-22T05:13:40;99580.25;;;21.40;33.04
70217;BME280;57608;0.000;0.000;2022-10-22T05:16:08;99585.16;;;21.44;32.80
70217;BME280;57608;0.000;0.000;2022-10-22T05:18:40;99586.56;;;21.49;32.71
70217;BME280;57608;0.000;0.000;2022-10-22T05:21:15;99587.97;;;21.53;32.84
70217;BME280;57608;0.000;0.000;2022-10-22T05:23:42;99586.75;;;21.57;32.60
70217;BME280;57608;0.000;0.000;2022-10-22T05:26:09;99590.13;;;21.59;32.79
70217;BME280;57608;0.000;0.000;2022-10-22T05:28:36;99591.53;;;21.63;32.62
70217;BME280;57608;0.000;0.000;2022-10-22T05:31:01;99589.69;;;21.64;32.75
70217;BME280;57608;0.000;0.000;2022-10-22T05:33:28;99590.66;;;21.62;32.68
70217;BME280;57608;0.000;0.000;2022-10-22T05:35:54;99592.06;;;21.57;32.55
70217;BME280;57608;0.000;0.000;2022-10-22T05:38:22;99599.63;;;21.52;33.67
70217;BME280;57608;0.000;0.000;2022-10-22T05:40:48;99600.03;;;21.47;33.97
70217;BME280;57608;0.000;0.000;2022-10-22T05:43:22;99599.75;;;21.40;33.87
70217;BME280;57608;0.000;0.000;2022-10-22T05:45:50;99601.00;;;21.36;34.04
70217;BME280;57608;0.000;0.000;2022-10-22T05:48:16;99599.88;;;21.29;34.42
70217;BME280;57608;0.000;0.000;2022-10-22T05:50:41;99610.81;;;21.26;34.08
70217;BME280;57608;0.000;0.000;2022-10-22T05:53:06;99601.41;;;21.22;34.07
70217;BME280;57608;0.000;0.000;2022-10-22T05:55:35;99601.69;;;21.19;34.56
70217;BME280;57608;0.000;0.000;2022-10-22T05:58:04;99607.03;;;21.19;34.39
70217;BME280;57608;0.000;0.000;2022-10-22T06:00:32;99607.69;;;21.21;34.53
70217;BME280;57608;0.000;0.000;2022-10-22T06:02:59;99604.06;;;21.22;34.21
70217;BME280;57608;0.000;0.000;2022-10-22T06:05:24;99605.47;;;21.26;34.33
70217;BME280;57608;0.000;0.000;2022-10-22T06:07:52;99605.22;;;21.29;34.32
70217;BME280;57608;0.000;0.000;2022-10-22T06:10:22;99606.75;;;21.32;33.99
70217;BME280;57608;0.000;0.000;2022-10-22T06:12:48;99600.56;;;21.31;33.91
70217;BME280;57608;0.000;0.000;2022-10-22T06:15:16;99612.34;;;21.28;33.95
70217;BME280;57608;0.000;0.000;2022-10-22T06:17:44;99604.50;;;21.27;34.63
70217;BME280;57608;0.000;0.000;2022-10-22T06:20:10;99608.28;;;21.24;35.10
70217;BME280;57608;0.000;0.000;2022-10-22T06:22:38;99609.13;;;21.25;34.92
70217;BME280;57608;0.000;0.000;2022-10-22T06:25:05;99603.53;;;21.28;35.02
70217;BME280;57608;0.000;0.000;2022-10-22T06:27:32;99607.31;;;21.35;35.12
70217;BME280;57608;0.000;0.000;2022-10-22T06:29:58;99611.13;;;21.42;34.94
70217;BME280;57608;0.000;0.000;2022-10-22T06:32:23;99606.91;;;21.50;34.89
70217;BME280;57608;0.000;0.000;2022-10-22T06:34:49;99615.94;;;21.58;34.93
70217;BME280;57608;0.000;0.000;2022-10-22T06:37:15;99617.88;;;21.66;34.71
70217;BME280;57608;0.000;0.000;2022-10-22T06:39:42;99615.50;;;21.73;34.55
70217;BME280;57608;0.000;0.000;2022-10-22T06:42:10;99621.81;;;21.82;34.35
70217;BME280;57608;0.000;0.000;2022-10-22T06:44:36;99621.28;;;21.88;34.39
70217;BME280;57608;0.000;0.000;2022-10-22T06:47:01;99623.38;;;21.94;34.24
70217;BME280;57608;0.000;0.000;2022-10-22T06:49:27;99617.59;;;21.99;34.05
70217;BME280;57608;0.000;0.000;2022-10-22T06:51:54;99624.06;;;22.06;34.15
70217;BME280;57608;0.000;0.000;2022-10-22T06:54:21;99626.28;;;22.10;33.83
70217;BME280;57608;0.000;0.000;2022-10-22T06:56:48;99626.03;;;22.14;33.51
70217;BME280;57608;0.000;0.000;2022-10-22T06:59:16;99624.03;;;22.16;33.22
70217;BME280;57608;0.000;0.000;2022-10-22T07:01:42;99628.25;;;22.18;33.44
70217;BME280;57608;0.000;0.000;2022-10-22T07:04:09;99633.44;;;22.20;33.32
70217;BME280;57608;0.000;0.000;2022-10-22T07:06:34;99629.38;;;22.16;33.10
70217;BME280;57608;0.000;0.000;2022-10-22T07:09:00;99640.34;;;22.13;33.36
70217;BME280;57608;0.000;0.000;2022-10-22T07:11:28;99631.91;;;22.07;33.25
70217;BME280;57608;0.000;0.000;2022-10-22T07:13:56;99632.47;;;22.01;33.34
70217;BME280;57608;0.000;0.000;2022-10-22T07:16:24;99637.41;;;21.96;33.42
70217;BME280;57608;0.000;0.000;2022-10-22T07:18:52;99639.50;;;21.92;33.39
70217;BME280;57608;0.000;0.000;2022-10-22T07:21:18;99639.22;;;21.86;33.32
70217;BME280;57608;0.000;0.000;2022-10-22T07:23:45;99637.97;;;21.80;33.05
70217;BME280;57608;0.000;0.000;2022-10-22T07:26:13;99640.06;;;21.76;33.15
70217;BME280;57608;0.000;0.000;2022-10-22T07:28:39;99641.47;;;21.71;32.91
70217;BME280;57608;0.000;0.000;2022-10-22T07:31:10;99639.50;;;21.73;32.74
70217;BME280;57608;0.000;0.000;2022-10-22T07:33:36;99636.97;;;21.71;32.57
70217;BME280;57608;0.000;0.000;2022-10-22T07:36:04;99638.53;;;21.74;32.80
70217;BME280;57608;0.000;0.000;2022-10-22T07:38:31;99640.06;;;21.76;32.50
70217;BME280;57608;0.000;0.000;2022-10-22T07:40:57;99634.72;;;21.76;32.21
70217;BME280;57608;0.000;0.000;2022-10-22T07:43:23;99637.41;;;21.76;32.13
70217;BME280;57608;0.000;0.000;2022-10-22T07:45:49;99634.47;;;21.70;32.21
70217;BME280;57608;0.000;0.000;2022-10-22T07:48:15;99633.88;;;21.66;32.35
70217;BME280;57608;0.000;0.000;2022-10-22T07:50:41;99637.97;;;21.60;32.53
70217;BME280;57608;0.000;0.000;2022-10-22T07:53:06;99640.88;;;21.57;32.43
70217;BME280;57608;0.000;0.000;2022-10-22T07:55:35;99637.41;;;21.57;32.05
70217;BME280;57608;0.000;0.000;2022-10-22T07:58:00;99641.59;;;21.59;32.35
70217;BME280;57608;0.000;0.000;2022-10-22T08:00:26;99636.84;;;21.63;32.11
70217;BME280;57608;0.000;0.000;2022-10-22T08:02:51;99637.28;;;21.68;31.78
70217;BME280;57608;0.000;0.000;2022-10-22T08:05:17;99631.66;;;21.71;31.42
70217;BME280;57608;0.000;0.000;2022-10-22T08:07:45;99643.56;;;21.77;31.30
70217;BME280;57608;0.000;0.000;2022-10-22T08:10:11;99634.44;;;21.79;30.95
70217;BME280;57608;0.000;0.000;2022-10-22T08:12:37;99635.16;;;21.82;31.18
70217;BME280;57608;0.000;0.000;2022-10-22T08:15:11;99636.69;;;21.84;31.56
70217;BME280;57608;0.000;0.000;2022-10-22T08:17:36;99631.22;;;21.86;31.78
70217;BME280;57608;0.000;0.000;2022-10-22T08:20:04;99634.47;;;21.89;31.74
70217;BME280;57608;0.000;0.000;2022-10-22T08:22:37;99634.31;;;21.91;31.42
70217;BME280;57608;0.000;0.000;2022-10-22T08:25:05;99645.69;;;21.93;31.45
70217;BME280;57608;0.000;0.000;2022-10-22T08:27:31;99636.72;;;21.94;31.29
70217;BME280;57608;0.000;0.000;2022-10-22T08:29:56;99638.38;;;21.95;31.45
70217;BME280;57608;0.000;0.000;2022-10-22T08:32:24;99633.03;;;21.95;31.28
70217;BME280;57608;0.000;0.000;2022-10-22T08:34:52;99642.06;;;21.94;31.42
70217;BME280;57608;0.000;0.000;2022-10-22T08:37:17;99636.28;;;21.89;31.31
70217;BME280;57608;0.000;0.000;2022-10-22T08:39:45;99633.22;;;21.84;31.76
70217;BME280;57608;0.000;0.000;2022-10-22T08:45:34;99637.28;;;21.68;32.11
70217;BME280;57608;0.000;0.000;2022-10-22T08:50:46;99638.63;;;21.53;32.32
70217;BME280;57608;0.000;0.000;2022-10-22T08:53:16;99637.47;;;21.45;32.66
70217;BME280;57608;0.000;0.000;2022-10-22T08:55:44;99642.81;;;21.45;34.54
70217;BME280;57608;0.000;0.000;2022-10-22T08:58:50;99643.09;;;21.42;35.47
70217;BME280;57608;0.000;0.000;2022-10-22T09:01:37;99642.13;;;21.43;36.50
70217;BME280;57608;0.000;0.000;2022-10-22T09:04:21;99640.16;;;21.45;36.30
70217;BME280;57608;0.000;0.000;2022-10-22T09:06:52;99641.56;;;21.50;36.46
70217;BME280;57608;0.000;0.000;2022-10-22T09:09:18;99640.31;;;21.54;36.13
70217;BME280;57608;0.000;0.000;2022-10-22T09:11:47;99641.91;;;21.56;35.92
70217;BME280;57608;0.000;0.000;2022-10-22T09:14:19;99638.22;;;21.57;35.77
70217;BME280;57608;0.000;0.000;2022-10-22T09:27:46;99633.84;;;21.46;35.16
70217;BME280;57608;0.000;0.000;2022-10-22T09:30:27;99638.88;;;21.50;34.97
70217;BME280;57608;0.000;0.000;2022-10-22T09:32:59;99634.88;;;21.55;34.86
70217;BME280;57608;0.000;0.000;2022-10-22T09:35:26;99627.44;;;21.59;34.65
70217;BME280;57608;0.000;0.000;2022-10-22T09:37:55;99636.69;;;21.65;34.31
70217;BME280;57608;0.000;0.000;2022-10-22T09:40:21;99637.97;;;21.70;34.12
70217;BME280;57608;0.000;0.000;2022-10-22T09:42:48;99636.69;;;21.74;34.08
70217;BME280;57608;0.000;0.000;2022-10-22T09:45:23;99639.78;;;21.79;33.92
70217;BME280;57608;0.000;0.000;2022-10-22T09:48:01;99635.88;;;21.84;33.85
70217;BME280;57608;0.000;0.000;2022-10-22T09:50:42;99635.59;;;21.87;33.70
70217;BME280;57608;0.000;0.000;2022-10-22T09:53:24;99637.84;;;21.91;33.50
70217;BME280;57608;0.000;0.000;2022-10-22T09:55:57;99631.38;;;21.94;33.63
70217;BME280;57608;0.000;0.000;2022-10-22T09:58:22;99633.03;;;21.95;33.26
70217;BME280;57608;0.000;0.000;2022-10-22T10:00:59;99627.59;;;21.97;33.16
70217;BME280;57608;0.000;0.000;2022-10-22T10:03:28;99624.91;;;21.97;33.13
70217;BME280;57608;0.000;0.000;2022-10-22T10:05:59;99622.38;;;21.95;32.93
70217;BME280;57608;0.000;0.000;2022-10-22T10:08:25;99627.16;;;21.91;32.90
70217;BME280;57608;0.000;0.000;2022-10-22T10:13:46;99615.94;;;21.78;33.01
70217;BME280;57608;0.000;0.000;2022-10-22T10:16:34;99617.47;;;21.71;33.21
70217;BME280;57608;0.000;0.000;2022-10-22T10:19:23;99617.31;;;21.62;33.06
70217;BME280;57608;0.000;0.000;2022-10-22T10:22:26;99616.22;;;21.55;33.43
70217;BME280;57608;0.000;0.000;2022-10-22T10:27:43;99615.47;;;21.43;33.29
70217;BME280;57608;0.000;0.000;2022-10-22T10:30:16;99619.41;;;21.39;33.38
70217;BME280;57608;0.000;0.000;2022-10-22T10:51:35;99596.22;;;21.30;33.32
70217;BME280;57608;0.000;0.000;2022-10-22T10:54:25;99605.31;;;21.27;33.41
70217;BME280;57608;0.000;0.000;2022-10-22T10:56:57;99595.34;;;21.20;33.44
70217;BME280;57608;0.000;0.000;2022-10-22T10:59:55;99598.59;;;21.23;33.53
70217;BME280;57608;0.000;0.000;2022-10-22T11:07:54;99586.00;;;21.35;33.39
70217;BME280;57608;0.000;0.000;2022-10-22T11:10:42;99584.47;;;21.42;33.23
70217;BME280;57608;0.000;0.000;2022-10-22T11:15:50;99585.31;;;21.53;33.07
70217;BME280;57608;0.000;0.000;2022-10-22T11:18:28;99584.78;;;21.59;32.88
70217;BME280;57608;0.000;0.000;2022-10-22T11:21:06;99587.16;;;21.62;32.87
70217;BME280;57608;0.000;0.000;2022-10-22T11:23:43;99582.41;;;21.66;32.76
70217;BME280;57608;0.000;0.000;2022-10-22T11:26:50;99581.97;;;21.70;32.75
70217;BME280;57608;0.000;0.000;2022-10-22T11:29:11;99579.03;;;21.73;32.52
70217;BME280;57608;0.000;0.000;2022-10-22T11:31:39;99582.38;;;21.75;32.51
70217;BME280;57608;0.000;0.000;2022-10-22T11:36:45;99578.75;;;21.76;32.21
70217;BME280;57608;0.000;0.000;2022-10-22T11:39:40;99576.38;;;21.73;32.14
70217;BME280;57608;0.000;0.000;2022-10-22T11:42:10;99572.56;;;21.66;32.42
70217;BME280;57608;0.000;0.000;2022-10-22T11:44:58;99565.13;;;21.60;32.37
70217;BME280;57608;0.000;0.000;2022-10-22T11:47:57;99557.78;;;21.52;32.53
70217;BME280;57608;0.000;0.000;2022-10-22T11:53:17;99559.06;;;21.38;32.59
70217;BME280;57608;0.000;0.000;2022-10-22T11:55:50;99558.81;;;21.32;32.53
70217;BME280;57608;0.000;0.000;2022-10-22T12:13:57;99550.50;;;21.25;32.91
70217;BME280;57608;0.000;0.000;2022-10-22T12:16:35;99550.50;;;21.25;32.83
70217;BME280;57608;0.000;0.000;2022-10-22T12:21:39;99542.94;;;21.20;32.75
70217;BME280;57608;0.000;0.000;2022-10-22T12:24:08;99539.84;;;21.15;32.71
70217;BME280;57608;0.000;0.000;2022-10-22T12:26:37;99543.78;;;21.11;32.93
70217;BME280;57608;0.000;0.000;2022-10-22T12:29:24;99543.91;;;21.09;33.01
70217;BME280;57608;0.000;0.000;2022-10-22T12:31:51;99530.59;;;21.09;33.13
70217;BME280;57608;0.000;0.000;2022-10-22T12:34:22;99537.31;;;21.13;33.08
70217;BME280;57608;0.000;0.000;2022-10-22T12:36:56;99535.91;;;21.19;33.28
70217;BME280;57608;0.000;0.000;2022-10-22T12:39:25;99535.50;;;21.24;33.11
70217;BME280;57608;0.000;0.000;2022-10-22T12:42:06;99527.94;;;21.29;32.86
70217;BME280;57608;0.000;0.000;2022-10-22T12:44:32;99538.03;;;21.35;32.81
70217;BME280;57608;0.000;0.000;2022-10-22T12:46:57;99527.78;;;21.40;32.73
70217;BME280;57608;0.000;0.000;2022-10-22T12:49:49;99527.22;;;21.46;32.43
70217;BME280;57608;0.000;0.000;2022-10-22T12:52:20;99533.13;;;21.50;32.60
70217;BME280;57608;0.000;0.000;2022-10-22T12:54:50;99531.03;;;21.54;32.32
70217;BME280;57608;0.000;0.000;2022-10-22T12:57:20;99529.06;;;21.56;32.55
70217;BME280;57608;0.000;0.000;2022-10-22T12:59:48;99525.13;;;21.60;32.30
70217;BME280;57608;0.000;0.000;2022-10-22T13:02:24;99525.84;;;21.62;32.41
70217;BME280;57608;0.000;0.000;2022-10-22T13:07:41;99528.22;;;21.65;32.42
70217;BME280;57608;0.000;0.000;2022-10-22T13:10:19;99522.22;;;21.63;32.21
70217;BME280;57608;0.000;0.000;2022-10-22T13:12:54;99527.94;;;21.58;32.18
70217;BME280;57608;0.000;0.000;2022-10-22T13:18:21;99520.22;;;21.45;32.08
70217;BME280;57608;0.000;0.000;2022-10-22T13:20:59;99524.28;;;21.40;32.21
70217;BME280;57608;0.000;0.000;2022-10-22T13:23:31;99513.50;;;21.32;32.28
70217;BME280;57608;0.000;0.000;2022-10-22T13:26:10;99519.22;;;21.27;32.28
70217;BME280;57608;0.000;0.000;2022-10-22T13:28:37;99519.78;;;21.21;32.43
70217;BME280;57608;0.000;0.000;2022-10-22T13:31:21;99518.53;;;21.15;32.42
70217;BME280;57608;0.000;0.000;2022-10-22T13:33:52;99512.63;;;21.11;32.41
70217;BME280;57608;0.000;0.000;2022-10-22T13:36:19;99519.78;;;21.11;32.79
70217;BME280;57608;0.000;0.000;2022-10-22T13:38:46;99515.28;;;21.11;32.82
70217;BME280;57608;0.000;0.000;2022-10-22T13:41:29;99516.84;;;21.14;32.98
70217;BME280;57608;0.000;0.000;2022-10-22T13:44:00;99511.38;;;21.16;32.89
70217;BME280;57608;0.000;0.000;2022-10-22T13:46:28;99512.09;;;21.18;32.75
70217;BME280;57608;0.000;0.000;2022-10-22T13:48:54;99507.72;;;21.17;32.57
70217;BME280;57608;0.000;0.000;2022-10-22T13:51:23;99512.34;;;21.15;32.57
70217;BME280;57608;0.000;0.000;2022-10-22T13:53:51;99510.13;;;21.10;32.66
70217;BME280;57608;0.000;0.000;2022-10-22T13:56:19;99507.84;;;21.05;32.58
70217;BME280;57608;0.000;0.000;2022-10-22T13:58:46;99509.97;;;21.02;32.70
70217;BME280;57608;0.000;0.000;2022-10-22T14:01:22;99503.09;;;20.99;32.76
70217;BME280;57608;0.000;0.000;2022-10-22T14:03:49;99497.78;;;20.99;32.93
70217;BME280;57608;0.000;0.000;2022-10-22T14:06:17;99492.16;;;21.02;33.13
70217;BME280;57608;0.000;0.000;2022-10-22T14:08:55;99496.22;;;21.06;33.24
70217;BME280;57608;0.000;0.000;2022-10-22T14:11:22;99495.81;;;21.11;33.06
70217;BME280;57608;0.000;0.000;2022-10-22T14:13:52;99491.75;;;21.17;33.13
70217;BME280;57608;0.000;0.000;2022-10-22T14:16:23;99497.50;;;21.22;32.92
70217;BME280;57608;0.000;0.000;2022-10-22T14:18:49;99493.56;;;21.26;32.97
70217;BME280;57608;0.000;0.000;2022-10-22T14:21:15;99497.50;;;21.32;32.83
70217;BME280;57608;0.000;0.000;2022-10-22T14:23:44;99499.72;;;21.36;32.78
70217;BME280;57608;0.000;0.000;2022-10-22T14:26:24;99500.31;;;21.40;32.64
70217;BME280;57608;0.000;0.000;2022-10-22T14:28:52;99498.06;;;21.45;32.77
70217;BME280;57608;0.000;0.000;2022-10-22T14:31:18;99498.75;;;21.47;32.59
70217;BME280;57608;0.000;0.000;2022-10-22T14:33:44;99506.47;;;21.50;32.60
70217;BME280;57608;0.000;0.000;2022-10-22T14:36:13;99497.50;;;21.51;32.48
70217;BME280;57608;0.000;0.000;2022-10-22T14:38:43;99499.16;;;21.52;32.39
70217;BME280;57608;0.000;0.000;2022-10-22T14:43:43;99497.63;;;21.50;32.50
70217;BME280;57608;0.000;0.000;2022-10-22T14:46:12;99497.19;;;21.44;32.20
70217;BME280;57608;0.000;0.000;2022-10-22T14:48:59;99499.59;;;21.38;32.33
70217;BME280;57608;0.000;0.000;2022-10-22T14:51:36;99495.81;;;21.31;32.31
70217;BME280;57608;0.000;0.000;2022-10-22T14:54:01;99492.88;;;21.24;32.31
70217;BME280;57608;0.000;0.000;2022-10-22T14:56:27;99494.25;;;21.18;32.41
70217;BME280;57608;0.000;0.000;2022-10-22T14:59:01;99489.53;;;21.12;32.51
70217;BME280;57608;0.000;0.000;2022-10-22T15:01:26;99492.59;;;21.07;32.63
70217;BME280;57608;0.000;0.000;2022-10-22T15:03:52;99492.16;;;21.02;32.71
70217;BME280;57608;0.000;0.000;2022-10-22T15:06:17;99493.28;;;21.00;32.72
70217;BME280;57608;0.000;0.000;2022-10-22T15:08:44;99502.25;;;20.99;32.83
70217;BME280;57608;0.000;0.000;2022-10-22T15:11:11;99499.44;;;21.00;33.03
70217;BME280;57608;0.000;0.000;2022-10-22T15:13:37;99494.81;;;21.02;33.10
70217;BME280;57608;0.000;0.000;2022-10-22T15:16:06;99499.84;;;21.05;33.05
70217;BME280;57608;0.000;0.000;2022-10-22T15:18:35;99493.56;;;21.06;32.91
70217;BME280;57608;0.000;0.000;2022-10-22T15:21:06;99498.88;;;21.06;32.89
70217;BME280;57608;0.000;0.000;2022-10-22T15:23:32;99491.19;;;21.03;32.73